createdAt,value
2018-10-06T00:00:09.009Z,82.01
2018-10-06T00:02:37.584Z,81.73
2018-10-06T00:05:06.328Z,81.21
2018-10-06T00:07:34.551Z,81.58
2018-10-06T00:10:02.825Z,81.20
2018-10-06T00:12:31.065Z,81.00
2018-10-06T00:14:59.329Z,81.46
2018-10-06T00:17:27.703Z,81.51
2018-10-06T00:19:56.839Z,81.53
2018-10-06T00:22:25.932Z,81.37
2018-10-06T00:24:54.186Z,81.30
2018-10-06T00:27:22.528Z,81.88
2018-10-06T00:29:50.807Z,81.83
2018-10-06T00:32:19.029Z,81.52
2018-10-06T00:34:47.237Z,82.30
2018-10-06T00:37:15.445Z,82.79
2018-10-06T00:39:43.686Z,83.07
2018-10-06T00:42:11.877Z,84.58
2018-10-06T00:44:40.173Z,83.01
2018-10-06T00:47:08.423Z,83.13
2018-10-06T00:49:36.936Z,83.91
2018-10-06T00:52:05.237Z,83.54
2018-10-06T00:54:33.505Z,83.94
2018-10-06T00:57:01.805Z,83.17
2018-10-06T00:59:30.096Z,83.20
2018-10-06T01:01:58.453Z,83.70
2018-10-06T01:04:26.674Z,83.67
2018-10-06T01:06:54.872Z,84.64
2018-10-06T01:09:23.139Z,84.91
2018-10-06T01:11:51.418Z,86.22
2018-10-06T01:14:19.622Z,86.49
2018-10-06T01:16:47.874Z,86.60
2018-10-06T01:19:16.078Z,86.01
2018-10-06T01:21:44.327Z,86.47
2018-10-06T01:24:12.525Z,85.78
2018-10-06T01:26:40.742Z,86.06
2018-10-06T01:29:08.977Z,86.50
2018-10-06T01:31:37.201Z,86.30
2018-10-06T01:34:05.402Z,87.31
2018-10-06T01:36:33.606Z,86.55
2018-10-06T01:39:01.814Z,87.16
2018-10-06T01:41:30.041Z,87.61
2018-10-06T01:43:58.285Z,87.91
2018-10-06T01:46:26.541Z,87.14
2018-10-06T01:48:54.808Z,87.44
2018-10-06T01:51:22.998Z,87.46
2018-10-06T01:53:51.221Z,87.98
2018-10-06T01:56:19.457Z,87.94
2018-10-06T01:58:47.673Z,87.85
2018-10-06T02:01:15.889Z,86.96
2018-10-06T02:03:44.116Z,87.74
2018-10-06T02:06:12.329Z,86.67
2018-10-06T02:08:40.590Z,86.25
2018-10-06T02:11:08.805Z,86.65
2018-10-06T02:13:37.046Z,86.25
2018-10-06T02:16:05.262Z,86.10
2018-10-06T02:18:33.500Z,87.11
2018-10-06T02:21:01.736Z,87.03
2018-10-06T02:23:29.957Z,87.76
2018-10-06T02:25:58.250Z,86.94
2018-10-06T02:28:26.478Z,89.00
2018-10-06T02:30:54.712Z,89.72
2018-10-06T02:33:22.939Z,87.65
2018-10-06T02:35:51.286Z,87.94
2018-10-06T02:38:19.501Z,87.03
2018-10-06T02:40:47.712Z,87.23
2018-10-06T02:43:15.956Z,87.44
2018-10-06T02:45:44.191Z,88.06
2018-10-06T02:48:12.412Z,88.50
2018-10-06T02:50:40.719Z,87.89
2018-10-06T02:53:09.478Z,87.47
2018-10-06T02:55:37.794Z,86.70
2018-10-06T02:58:06.186Z,87.41
2018-10-06T03:00:34.431Z,87.40
2018-10-06T03:03:02.691Z,87.63
2018-10-06T03:05:30.915Z,87.08
2018-10-06T03:07:59.143Z,87.74
2018-10-06T03:10:27.367Z,87.08
2018-10-06T03:12:55.822Z,87.14
2018-10-06T03:15:24.058Z,88.67
2018-10-06T03:17:52.278Z,87.06
2018-10-06T03:20:20.501Z,87.67
2018-10-06T03:22:48.729Z,87.91
2018-10-06T03:25:17.047Z,88.94
2018-10-06T03:27:45.266Z,87.88
2018-10-06T03:30:13.870Z,88.38
2018-10-06T03:32:42.208Z,88.58
2018-10-06T03:35:10.448Z,89.03
2018-10-06T03:37:38.645Z,89.48
2018-10-06T03:40:06.914Z,89.60
2018-10-06T03:42:35.145Z,88.24
2018-10-06T03:45:03.407Z,89.47
2018-10-06T03:47:31.637Z,88.63
2018-10-06T03:49:59.954Z,89.28
2018-10-06T03:52:28.169Z,88.11
2018-10-06T03:54:56.388Z,87.41
2018-10-06T03:57:24.642Z,87.95
2018-10-06T03:59:52.882Z,87.78
2018-10-06T04:02:21.098Z,88.03
2018-10-06T04:04:49.333Z,88.11
2018-10-06T04:07:17.550Z,88.71
2018-10-06T04:09:45.793Z,88.73
2018-10-06T04:12:14.049Z,88.43
2018-10-06T04:14:42.291Z,89.40
2018-10-06T04:17:10.570Z,88.73
2018-10-06T04:19:38.820Z,88.37
2018-10-06T04:22:07.064Z,88.77
2018-10-06T04:24:35.310Z,89.56
2018-10-06T04:27:03.514Z,89.04
2018-10-06T04:29:31.738Z,88.73
2018-10-06T04:31:59.966Z,88.45
2018-10-06T04:34:28.176Z,90.01
2018-10-06T04:36:56.446Z,89.80
2018-10-06T04:39:24.694Z,91.15
2018-10-06T04:41:52.909Z,90.01
2018-10-06T04:44:21.162Z,90.46
2018-10-06T04:46:49.381Z,89.96
2018-10-06T04:49:17.620Z,90.75
2018-10-06T04:51:45.829Z,90.49
2018-10-06T04:54:14.050Z,90.74
2018-10-06T04:56:42.282Z,90.21
2018-10-06T04:59:10.534Z,88.82
2018-10-06T05:01:38.756Z,89.04
2018-10-06T05:04:06.985Z,89.44
2018-10-06T05:06:35.234Z,90.37
2018-10-06T05:09:04.630Z,90.01
2018-10-06T05:11:32.866Z,90.16
2018-10-06T05:14:01.102Z,89.94
2018-10-06T05:16:29.309Z,90.60
2018-10-06T05:18:57.534Z,89.58
2018-10-06T05:21:25.768Z,89.65
2018-10-06T05:23:53.981Z,90.13
2018-10-06T05:26:22.258Z,89.63
2018-10-06T05:28:50.497Z,89.78
2018-10-06T05:31:18.738Z,89.94
2018-10-06T05:33:46.961Z,90.32
2018-10-06T05:36:15.185Z,90.24
2018-10-06T05:38:43.440Z,90.14
2018-10-06T05:41:11.689Z,89.01
2018-10-06T05:43:39.927Z,88.83
2018-10-06T05:46:08.315Z,88.89
2018-10-06T05:48:36.517Z,89.32
2018-10-06T05:51:04.765Z,88.69
2018-10-06T05:53:32.976Z,88.58
2018-10-06T05:56:01.190Z,88.18
2018-10-06T05:58:29.397Z,88.12
2018-10-06T06:00:57.629Z,87.56
2018-10-06T06:03:25.863Z,88.37
2018-10-06T06:05:54.107Z,88.47
2018-10-06T06:08:22.352Z,88.57
2018-10-06T06:10:50.582Z,88.58
2018-10-06T06:13:18.837Z,88.10
2018-10-06T06:15:47.140Z,87.97
2018-10-06T06:18:15.335Z,88.82
2018-10-06T06:20:49.062Z,88.97
2018-10-06T06:23:17.349Z,88.96
2018-10-06T06:25:45.595Z,89.11
2018-10-06T06:28:13.899Z,88.36
2018-10-06T06:30:42.142Z,88.20
2018-10-06T06:33:12.422Z,88.68
2018-10-06T06:35:40.674Z,89.23
2018-10-06T06:38:10.966Z,88.55
2018-10-06T06:40:39.193Z,87.57
2018-10-06T06:43:07.507Z,88.05
2018-10-06T06:45:35.785Z,86.65
2018-10-06T06:48:03.977Z,87.32
2018-10-06T06:50:32.217Z,86.09
2018-10-06T06:53:00.407Z,85.65
2018-10-06T06:55:28.673Z,84.19
2018-10-06T06:57:56.909Z,83.39
2018-10-06T07:00:25.125Z,82.32
2018-10-06T07:02:53.358Z,82.51
2018-10-06T07:05:22.591Z,81.42
2018-10-06T07:07:50.934Z,81.74
2018-10-06T07:10:19.353Z,80.29
2018-10-06T07:12:47.547Z,79.33
2018-10-06T07:15:16.130Z,79.92
2018-10-06T07:17:44.451Z,78.03
2018-10-06T07:20:12.941Z,77.06
2018-10-06T07:22:41.257Z,77.67
2018-10-06T07:25:09.507Z,76.21
2018-10-06T07:27:37.864Z,75.92
2018-10-06T07:30:06.455Z,75.29
2018-10-06T07:32:45.675Z,70.12
2018-10-06T07:35:13.884Z,69.54
2018-10-06T07:37:42.106Z,70.59
2018-10-06T07:40:15.300Z,70.90
2018-10-06T07:42:43.542Z,72.04
2018-10-06T07:45:11.756Z,71.03
2018-10-06T07:47:41.045Z,68.95
2018-10-06T07:50:09.285Z,66.22
2018-10-06T07:52:37.478Z,67.71
2018-10-06T07:55:05.786Z,66.49
2018-10-06T07:57:34.038Z,65.08
2018-10-06T08:00:02.311Z,65.67
2018-10-06T08:02:30.532Z,64.97
2018-10-06T08:04:58.910Z,65.79
2018-10-06T08:07:27.168Z,66.34
2018-10-06T08:09:55.356Z,62.73
2018-10-06T08:12:23.628Z,63.36
2018-10-06T08:14:51.842Z,64.92
2018-10-06T08:17:20.148Z,62.28
2018-10-06T08:19:48.396Z,62.79
2018-10-06T08:22:16.639Z,63.80
2018-10-06T08:24:44.866Z,62.48
2018-10-06T08:27:13.210Z,61.00
2018-10-06T08:29:41.406Z,59.28
2018-10-06T08:32:09.746Z,59.53
2018-10-06T08:34:37.987Z,60.45
2018-10-06T08:37:06.204Z,60.26
2018-10-06T08:39:34.439Z,62.88
2018-10-06T08:42:02.644Z,63.01
2018-10-06T08:44:30.872Z,61.86
2018-10-06T08:46:59.077Z,62.95
2018-10-06T08:49:27.289Z,62.85
2018-10-06T08:51:55.505Z,61.88
2018-10-06T08:54:23.865Z,61.92
2018-10-06T08:56:53.158Z,61.63
2018-10-06T08:59:21.433Z,62.54
2018-10-06T09:01:49.644Z,61.82
2018-10-06T09:04:17.977Z,62.23
2018-10-06T09:06:47.242Z,61.24
2018-10-06T09:09:15.506Z,61.65
2018-10-06T09:11:43.789Z,61.06
2018-10-06T09:14:12.057Z,60.04
2018-10-06T09:16:40.264Z,60.04
2018-10-06T09:19:08.506Z,60.48
2018-10-06T09:21:36.732Z,60.88
2018-10-06T09:24:04.990Z,60.54
2018-10-06T09:26:33.225Z,59.47
2018-10-06T09:29:01.450Z,59.33
2018-10-06T09:31:29.661Z,59.94
2018-10-06T09:33:57.888Z,59.58
2018-10-06T09:36:26.137Z,58.77
2018-10-06T09:38:54.403Z,59.06
2018-10-06T09:41:22.608Z,58.58
2018-10-06T09:43:50.818Z,58.85
2018-10-06T09:46:19.042Z,58.24
2018-10-06T09:48:47.277Z,57.03
2018-10-06T09:51:15.510Z,58.14
2018-10-06T09:53:43.770Z,58.04
2018-10-06T09:56:11.978Z,57.44
2018-10-06T09:58:40.169Z,57.73
2018-10-06T10:01:13.768Z,56.89
2018-10-06T10:03:47.377Z,57.62
2018-10-06T10:06:15.569Z,56.58
2018-10-06T10:08:43.781Z,56.31
2018-10-06T10:11:12.020Z,56.79
2018-10-06T10:13:40.219Z,57.05
2018-10-06T10:16:08.446Z,57.27
2018-10-06T10:18:36.669Z,57.15
2018-10-06T10:21:04.896Z,56.48
2018-10-06T10:23:33.253Z,57.03
2018-10-06T10:26:01.342Z,56.03
2018-10-06T10:28:29.649Z,56.70
2018-10-06T10:30:57.812Z,57.47
2018-10-06T10:33:26.052Z,55.78
2018-10-06T10:35:54.251Z,56.26
2018-10-06T10:38:22.473Z,56.47
2018-10-06T10:40:50.693Z,55.75
2018-10-06T10:43:18.911Z,55.16
2018-10-06T10:45:47.106Z,55.68
2018-10-06T10:48:15.352Z,56.02
2018-10-06T10:50:43.598Z,54.63
2018-10-06T10:53:11.766Z,55.09
2018-10-06T10:55:40.051Z,54.58
2018-10-06T10:58:08.195Z,54.03
2018-10-06T11:00:36.471Z,54.63
2018-10-06T11:03:04.595Z,55.17
2018-10-06T11:05:32.792Z,54.19
2018-10-06T11:08:01.023Z,54.21
2018-10-06T11:10:29.214Z,54.04
2018-10-06T11:12:57.438Z,53.18
2018-10-06T11:15:25.665Z,53.79
2018-10-06T11:17:53.898Z,53.55
2018-10-06T11:20:22.100Z,53.35
2018-10-06T11:22:50.311Z,53.72
2018-10-06T11:25:18.580Z,54.38
2018-10-06T11:27:46.769Z,53.52
2018-10-06T11:30:14.994Z,52.18
2018-10-06T11:32:43.185Z,52.52
2018-10-06T11:35:11.409Z,53.49
2018-10-06T11:37:39.861Z,52.91
2018-10-06T11:40:07.905Z,51.84
2018-10-06T11:42:36.130Z,52.43
2018-10-06T11:45:04.395Z,51.87
2018-10-06T11:47:32.609Z,51.93
2018-10-06T11:50:01.165Z,52.40
2018-10-06T11:52:29.258Z,51.39
2018-10-06T11:54:57.466Z,52.57
2018-10-06T11:57:25.652Z,51.69
2018-10-06T11:59:53.958Z,51.74
2018-10-06T12:02:22.154Z,50.71
2018-10-06T12:04:50.366Z,50.43
2018-10-06T12:07:18.609Z,52.13
2018-10-06T12:09:46.831Z,51.56
2018-10-06T12:12:15.040Z,50.44
2018-10-06T12:14:43.244Z,51.15
2018-10-06T12:17:11.447Z,50.64
2018-10-06T12:19:39.677Z,50.94
2018-10-06T12:22:07.920Z,51.41
2018-10-06T12:24:36.145Z,49.51
2018-10-06T12:27:04.393Z,49.96
2018-10-06T12:29:32.612Z,50.82
2018-10-06T12:32:00.806Z,49.36
2018-10-06T12:34:29.029Z,49.62
2018-10-06T12:36:57.240Z,49.16
2018-10-06T12:39:25.431Z,48.45
2018-10-06T12:41:53.653Z,47.57
2018-10-06T12:44:21.879Z,48.59
2018-10-06T12:46:50.090Z,47.05
2018-10-06T12:49:18.299Z,46.95
2018-10-06T12:51:46.518Z,45.93
2018-10-06T12:54:14.664Z,45.54
2018-10-06T12:56:42.851Z,45.48
2018-10-06T12:59:11.077Z,46.27
2018-10-06T13:01:39.300Z,45.64
2018-10-06T13:04:07.497Z,44.32
2018-10-06T13:06:35.709Z,44.51
2018-10-06T13:09:04.869Z,44.07
2018-10-06T13:11:33.097Z,43.96
2018-10-06T13:14:01.314Z,43.24
2018-10-06T13:16:29.506Z,42.40
2018-10-06T13:18:57.716Z,41.63
2018-10-06T13:21:25.907Z,41.41
2018-10-06T13:23:54.102Z,41.15
2018-10-06T13:26:22.338Z,41.43
2018-10-06T13:28:50.557Z,41.49
2018-10-06T13:31:18.782Z,40.76
2018-10-06T13:33:46.993Z,41.52
2018-10-06T13:36:15.218Z,40.75
2018-10-06T13:38:43.436Z,41.52
2018-10-06T13:41:11.661Z,40.05
2018-10-06T13:43:39.877Z,39.33
2018-10-06T13:46:08.401Z,39.94
2018-10-06T13:48:36.602Z,39.63
2018-10-06T13:51:04.861Z,38.20
2018-10-06T13:53:33.071Z,39.38
2018-10-06T13:56:01.253Z,38.95
2018-10-06T13:58:29.482Z,38.94
2018-10-06T14:00:57.689Z,39.60
2018-10-06T14:03:26.025Z,39.89
2018-10-06T14:05:54.241Z,39.58
2018-10-06T14:08:22.446Z,39.43
2018-10-06T14:10:50.638Z,38.66
2018-10-06T14:13:18.841Z,39.59
2018-10-06T14:15:47.050Z,38.95
2018-10-06T14:18:15.278Z,39.22
2018-10-06T14:20:43.498Z,39.36
2018-10-06T14:23:11.694Z,39.88
2018-10-06T14:25:39.893Z,40.41
2018-10-06T14:28:08.098Z,39.95
2018-10-06T14:30:36.326Z,39.39
2018-10-06T14:33:04.530Z,39.76
2018-10-06T14:35:32.761Z,39.99
2018-10-06T14:38:00.978Z,40.57
2018-10-06T14:40:29.219Z,40.11
2018-10-06T14:42:57.485Z,40.84
2018-10-06T14:45:25.641Z,41.09
2018-10-06T14:47:53.837Z,40.93
2018-10-06T14:50:22.103Z,41.02
2018-10-06T14:52:50.306Z,41.89
2018-10-06T14:55:18.514Z,40.43
2018-10-06T14:57:46.717Z,41.16
2018-10-06T15:00:14.944Z,41.68
2018-10-06T15:02:43.171Z,40.43
2018-10-06T15:05:11.457Z,41.34
2018-10-06T15:07:39.728Z,40.88
2018-10-06T15:10:08.049Z,41.13
2018-10-06T15:12:36.344Z,41.01
2018-10-06T15:15:04.909Z,42.07
2018-10-06T15:17:33.161Z,41.92
2018-10-06T15:20:01.403Z,42.74
2018-10-06T15:22:29.655Z,41.93
2018-10-06T15:24:57.968Z,42.92
2018-10-06T15:27:26.245Z,43.95
2018-10-06T15:29:54.696Z,43.12
2018-10-06T15:32:22.976Z,43.94
2018-10-06T15:34:51.206Z,43.79
2018-10-06T15:37:19.506Z,43.76
2018-10-06T15:39:47.766Z,44.61
2018-10-06T15:42:16.028Z,43.85
2018-10-06T15:44:44.446Z,44.04
2018-10-06T15:47:12.697Z,44.88
2018-10-06T15:49:40.939Z,45.17
2018-10-06T15:52:09.242Z,44.90
2018-10-06T15:54:37.540Z,44.87
2018-10-06T15:57:06.026Z,45.49
2018-10-06T15:59:34.485Z,45.84
2018-10-06T16:02:02.871Z,46.01
2018-10-06T16:04:31.102Z,45.78
2018-10-06T16:06:59.339Z,46.18
2018-10-06T16:09:27.575Z,46.55
2018-10-06T16:11:55.812Z,47.76
2018-10-06T16:14:24.058Z,46.91
2018-10-06T16:16:52.320Z,47.55
2018-10-06T16:19:20.576Z,48.41
2018-10-06T16:21:48.834Z,48.58
2018-10-06T16:24:17.098Z,47.74
2018-10-06T16:26:45.373Z,48.75
2018-10-06T16:29:13.877Z,48.00
2018-10-06T16:31:42.112Z,48.44
2018-10-06T16:34:10.657Z,49.12
2018-10-06T16:36:38.900Z,49.67
2018-10-06T16:39:07.798Z,48.73
2018-10-06T16:41:36.146Z,49.66
2018-10-06T16:44:04.716Z,50.14
2018-10-06T16:46:33.072Z,51.31
2018-10-06T16:49:01.298Z,50.67
2018-10-06T16:51:29.610Z,50.70
2018-10-06T16:53:57.869Z,51.26
2018-10-06T16:56:26.124Z,50.78
2018-10-06T16:58:54.385Z,51.61
2018-10-06T17:01:22.671Z,51.34
2018-10-06T17:03:50.911Z,51.38
2018-10-06T17:06:19.225Z,52.11
2018-10-06T17:08:47.442Z,51.51
2018-10-06T17:11:15.730Z,52.14
2018-10-06T17:13:43.982Z,53.03
2018-10-06T17:16:12.213Z,54.01
2018-10-06T17:18:40.543Z,53.83
2018-10-06T17:21:08.748Z,54.25
2018-10-06T17:23:37.010Z,54.27
2018-10-06T17:26:05.245Z,54.84
2018-10-06T17:28:33.497Z,54.24
2018-10-06T17:31:01.798Z,55.74
2018-10-06T17:33:30.008Z,55.67
2018-10-06T17:35:58.240Z,55.17
2018-10-06T17:38:26.428Z,55.45
2018-10-06T17:40:54.685Z,56.13
2018-10-06T17:43:22.912Z,56.37
2018-10-06T17:45:51.253Z,55.84
2018-10-06T17:48:19.483Z,55.56
2018-10-06T17:50:47.803Z,56.49
2018-10-06T17:53:15.917Z,56.16
2018-10-06T17:55:44.115Z,56.76
2018-10-06T17:58:12.325Z,56.67
2018-10-06T18:00:40.526Z,56.74
2018-10-06T18:03:08.749Z,57.46
2018-10-06T18:05:38.024Z,58.38
2018-10-06T18:08:06.261Z,57.56
2018-10-06T18:10:34.473Z,59.05
2018-10-06T18:13:02.677Z,58.44
2018-10-06T18:15:31.939Z,59.25
2018-10-06T18:18:00.138Z,59.21
2018-10-06T18:20:28.442Z,59.12
2018-10-06T18:22:56.584Z,58.73
2018-10-06T18:25:24.839Z,59.01
2018-10-06T18:27:53.081Z,59.78
2018-10-06T18:30:21.322Z,59.69
2018-10-06T18:32:49.541Z,59.42
2018-10-06T18:35:17.753Z,60.03
2018-10-06T18:37:45.947Z,60.10
2018-10-06T18:40:14.181Z,61.12
2018-10-06T18:42:43.510Z,60.57
2018-10-06T18:45:11.885Z,61.66
2018-10-06T18:47:40.129Z,60.57
2018-10-06T18:50:08.370Z,60.83
2018-10-06T18:52:38.050Z,61.87
2018-10-06T18:55:06.422Z,62.34
2018-10-06T18:57:34.685Z,62.93
2018-10-06T19:00:03.136Z,61.92
2018-10-06T19:02:31.366Z,62.94
2018-10-06T19:04:59.598Z,62.92
2018-10-06T19:07:27.893Z,63.02
2018-10-06T19:09:56.136Z,63.06
2018-10-06T19:12:24.354Z,62.62
2018-10-06T19:14:52.577Z,63.19
2018-10-06T19:17:20.828Z,63.50
2018-10-06T19:19:49.057Z,62.75
2018-10-06T19:22:17.329Z,62.48
2018-10-06T19:24:45.658Z,62.67
2018-10-06T19:27:13.886Z,63.65
2018-10-06T19:29:42.121Z,64.46
2018-10-06T19:32:10.348Z,64.45
2018-10-06T19:34:38.582Z,65.99
2018-10-06T19:37:06.781Z,64.83
2018-10-06T19:39:35.096Z,64.78
2018-10-06T19:42:03.293Z,65.15
2018-10-06T19:44:31.573Z,65.12
2018-10-06T19:46:59.947Z,66.01
2018-10-06T19:49:28.155Z,66.77
2018-10-06T19:51:56.433Z,66.09
2018-10-06T19:54:24.673Z,67.25
2018-10-06T19:56:52.853Z,66.58
2018-10-06T19:59:21.070Z,67.57
2018-10-06T20:01:49.287Z,66.57
2018-10-06T20:04:17.592Z,67.77
2018-10-06T20:06:45.816Z,68.07
2018-10-06T20:09:14.018Z,68.02
2018-10-06T20:11:42.265Z,69.35
2018-10-06T20:14:10.486Z,68.71
2018-10-06T20:16:38.702Z,68.25
2018-10-06T20:19:07.055Z,69.54
2018-10-06T20:21:35.234Z,70.02
2018-10-06T20:24:03.506Z,69.27
2018-10-06T20:26:31.713Z,68.81
2018-10-06T20:28:59.954Z,70.41
2018-10-06T20:31:28.153Z,70.54
2018-10-06T20:33:56.450Z,71.44
2018-10-06T20:36:25.777Z,71.08
2018-10-06T20:38:54.016Z,70.43
2018-10-06T20:41:22.248Z,70.97
2018-10-06T20:43:50.489Z,70.19
2018-10-06T20:46:18.861Z,71.12
2018-10-06T20:48:47.932Z,69.83
2018-10-06T20:51:16.157Z,71.06
2018-10-06T20:53:44.386Z,70.62
2018-10-06T20:56:12.589Z,70.98
2018-10-06T20:58:40.965Z,70.25
2018-10-06T21:01:09.521Z,70.69
2018-10-06T21:03:37.736Z,70.89
2018-10-06T21:06:05.978Z,71.18
2018-10-06T21:08:34.219Z,71.47
2018-10-06T21:11:02.509Z,71.97
2018-10-06T21:13:30.681Z,71.66
2018-10-06T21:15:58.928Z,73.15
2018-10-06T21:18:27.219Z,72.67
2018-10-06T21:20:55.365Z,73.51
2018-10-06T21:23:23.577Z,72.56
2018-10-06T21:25:51.821Z,72.98
2018-10-06T21:28:20.102Z,73.06
2018-10-06T21:30:48.365Z,73.89
2018-10-06T21:33:16.581Z,72.66
2018-10-06T21:35:44.833Z,73.29
2018-10-06T21:38:13.041Z,74.24
2018-10-06T21:40:41.337Z,74.88
2018-10-06T21:43:14.545Z,73.74
2018-10-06T21:45:42.825Z,74.40
2018-10-06T21:48:11.101Z,73.42
2018-10-06T21:50:39.474Z,73.58
2018-10-06T21:53:07.738Z,73.43
2018-10-06T21:55:35.993Z,73.99
2018-10-06T21:58:04.330Z,74.76
2018-10-06T22:00:32.642Z,74.38
2018-10-06T22:03:00.994Z,74.81
2018-10-06T22:05:29.278Z,75.36
2018-10-06T22:07:57.560Z,74.86
2018-10-06T22:10:25.857Z,75.55
2018-10-06T22:12:55.155Z,75.29
2018-10-06T22:15:23.698Z,74.66
2018-10-06T22:17:51.813Z,76.44
2018-10-06T22:20:20.048Z,76.60
2018-10-06T22:22:48.265Z,76.34
2018-10-06T22:25:16.526Z,76.51
2018-10-06T22:27:44.765Z,76.96
2018-10-06T22:30:12.978Z,77.52
2018-10-06T22:32:41.245Z,77.51
2018-10-06T22:35:09.516Z,77.33
2018-10-06T22:37:37.718Z,77.72
2018-10-06T22:40:06.470Z,77.04
2018-10-06T22:42:34.706Z,77.49
2018-10-06T22:45:02.969Z,77.77
2018-10-06T22:47:31.153Z,77.55
2018-10-06T22:49:59.352Z,78.01
2018-10-06T22:52:27.584Z,77.17
2018-10-06T22:54:56.070Z,77.83
2018-10-06T22:57:24.383Z,77.86
2018-10-06T22:59:52.654Z,77.78
2018-10-06T23:02:20.871Z,77.91
2018-10-06T23:04:49.082Z,78.14
2018-10-06T23:07:17.351Z,78.20
2018-10-06T23:09:46.589Z,77.81
2018-10-06T23:12:14.780Z,77.01
2018-10-06T23:14:43.446Z,78.15
2018-10-06T23:17:11.672Z,77.58
2018-10-06T23:19:40.922Z,77.79
2018-10-06T23:22:09.223Z,78.88
2018-10-06T23:24:37.462Z,80.69
2018-10-06T23:27:05.885Z,80.36
2018-10-06T23:29:34.137Z,80.43
2018-10-06T23:32:02.372Z,78.67
2018-10-06T23:34:30.574Z,78.15
2018-10-06T23:36:58.784Z,78.98
2018-10-06T23:39:27.129Z,80.20
2018-10-06T23:41:55.350Z,78.78
2018-10-06T23:44:23.578Z,78.62
2018-10-06T23:46:51.784Z,80.32
2018-10-06T23:49:19.984Z,79.56
2018-10-06T23:51:48.193Z,80.45
2018-10-06T23:54:16.439Z,80.30
2018-10-06T23:56:44.693Z,79.65
2018-10-06T23:59:12.921Z,79.55
